Overview Statistics Trail Chart Weather Telemetry Raw packets
 

This is the latest recevied weather packets stored in our database for station/object EB2EMZ-W. If no packets are shown the sender has not sent any weather packets the latest 10 day(s).

<< 6 7 8 9 10 11 12 >>
Time Temp. Humidity Pressure Rain* Wind** Luminosity Snow
1788255775 23.89° C 50% 1005 hPa 0 mm - - -
1788253955 22.22° C 60% 1005 hPa 0 mm - - -
1788252133 21.11° C 67% 1005 hPa 0 mm - - -
1788250313 20.56° C 69% 1005 hPa 0 mm - - -
1788248492 19.44° C 75% 1005 hPa 0 mm - - -
1788246672 18.33° C 77% 1005 hPa 0 mm - - -
1788244852 18.33° C 76% 1004 hPa 0 mm - - -
1788243032 18.33° C 79% 1005 hPa 0 mm - - -
1788241213 17.78° C 76% 1005 hPa 0 mm - - -
1788239391 17.78° C 74% 1005 hPa 0 mm - - -
1788237571 17.78° C 75% 1005 hPa 0 mm - - -
1788235758 17.78° C 75% 1005 hPa 0 mm - - -
1788233931 17.22° C 76% 1005 hPa 0 mm - - -
1788232111 17.22° C 75% 1005 hPa 0 mm - - -
1788230290 17.22° C 72% 1005 hPa 0 mm - - -
1788228469 17.22° C 75% 1005 hPa 0 mm - - -
1788226650 16.67° C 74% 1006 hPa 0 mm - - -
1788224828 16.67° C 77% 1006 hPa 0 mm - - -
1788223009 16.67° C 75% 1006 hPa 0 mm - - -
1788221192 17.22° C 73% 1007 hPa 0 mm - - -
1788219380 17.78° C 72% 1007 hPa 0 mm - - -
1788216742 17.22° C 73% 1007 hPa 0 mm - - -
1788214921 17.78° C 72% 1006 hPa 0 mm - - -
1788213101 17.78° C 71% 1007 hPa 0 mm - - -
1788211297 18.33° C 68% 1007 hPa 0 mm - - -

* Rain latest hour (hover to see other rain measurements)
** Current wind speed in m/s (hover to see current wind gust speed)